sensor_id;sensor_type;location;lat;lon;timestamp;pressure;altitude;pressure_sealevel;temperature;humidity
44734;BME280;30462;52.446;-1.930;2023-05-24T00:00:18;101285.4961;;;;
44734;BME280;30462;52.446;-1.930;2023-05-24T00:01:18;101283.1563;;;;
44734;BME280;30462;52.446;-1.930;2023-05-24T00:02:18;101286.9688;;;;
44734;BME280;30462;52.446;-1.930;2023-05-24T00:03:18;101284.2891;;;;
44734;BME280;30462;52.446;-1.930;2023-05-24T00:04:17;101285.0117;;;;
44734;BME280;30462;52.446;-1.930;2023-05-24T00:05:18;101283.5313;;;;
44734;BME280;30462;52.446;-1.930;2023-05-24T00:06:18;101285.9883;;;;
44734;BME280;30462;52.446;-1.930;2023-05-24T00:07:17;101281.3945;;;;
44734;BME280;30462;52.446;-1.930;2023-05-24T00:08:17;101278.375;;;;
44734;BME280;30462;52.446;-1.930;2023-05-24T00:09:18;101277.8945;;;;
44734;BME280;30462;52.446;-1.930;2023-05-24T00:10:18;101277.4414;;;;
44734;BME280;30462;52.446;-1.930;2023-05-24T00:11:18;101276.2578;;;;
44734;BME280;30462;52.446;-1.930;2023-05-24T00:12:18;101278.9375;;;;
44734;BME280;30462;52.446;-1.930;2023-05-24T00:13:17;101275.625;;;;
44734;BME280;30462;52.446;-1.930;2023-05-24T00:14:17;101275.5586;;;;
44734;BME280;30462;52.446;-1.930;2023-05-24T00:15:18;101277.7539;;;;
44734;BME280;30462;52.446;-1.930;2023-05-24T00:16:18;101279.6406;;;;
44734;BME280;30462;52.446;-1.930;2023-05-24T00:17:18;101278.6523;;;;
44734;BME280;30462;52.446;-1.930;2023-05-24T00:18:18;101277.5078;;;;
44734;BME280;30462;52.446;-1.930;2023-05-24T00:19:17;101279.1719;;;;
44734;BME280;30462;52.446;-1.930;2023-05-24T00:20:18;101278.9648;;;;
44734;BME280;30462;52.446;-1.930;2023-05-24T00:21:18;101281.2891;;;;
44734;BME280;30462;52.446;-1.930;2023-05-24T00:22:17;101279.707;;;;
44734;BME280;30462;52.446;-1.930;2023-05-24T00:23:18;101279.1211;;;;
44734;BME280;30462;52.446;-1.930;2023-05-24T00:24:18;101278.7461;;;;
44734;BME280;30462;52.446;-1.930;2023-05-24T00:25:18;101282.9766;;;;
44734;BME280;30462;52.446;-1.930;2023-05-24T00:26:17;101281.7813;;;;
44734;BME280;30462;52.446;-1.930;2023-05-24T00:27:18;101280.1914;;;;
44734;BME280;30462;52.446;-1.930;2023-05-24T00:28:18;101282.5977;;;;
44734;BME280;30462;52.446;-1.930;2023-05-24T00:29:18;101281.9414;;;;
44734;BME280;30462;52.446;-1.930;2023-05-24T00:30:18;101283.7773;;;;
44734;BME280;30462;52.446;-1.930;2023-05-24T00:31:18;101284.543;;;;
44734;BME280;30462;52.446;-1.930;2023-05-24T00:32:17;101286.2773;;;;
44734;BME280;30462;52.446;-1.930;2023-05-24T00:33:18;101282.4688;;;;
44734;BME280;30462;52.446;-1.930;2023-05-24T00:34:18;101281.0352;;;;
44734;BME280;30462;52.446;-1.930;2023-05-24T00:35:17;101282.207;;;;
44734;BME280;30462;52.446;-1.930;2023-05-24T00:36:18;101279.3438;;;;
44734;BME280;30462;52.446;-1.930;2023-05-24T00:37:18;101281.4844;;;;
44734;BME280;30462;52.446;-1.930;2023-05-24T00:38:18;101279.2813;;;;
44734;BME280;30462;52.446;-1.930;2023-05-24T00:39:17;101276.8633;;;;
44734;BME280;30462;52.446;-1.930;2023-05-24T00:40:17;101277;;;;
44734;BME280;30462;52.446;-1.930;2023-05-24T00:41:18;101273.0977;;;;
44734;BME280;30462;52.446;-1.930;2023-05-24T00:42:18;101272.1836;;;;
44734;BME280;30462;52.446;-1.930;2023-05-24T00:43:18;101267.5;;;;
44734;BME280;30462;52.446;-1.930;2023-05-24T00:44:17;101268.3633;;;;
44734;BME280;30462;52.446;-1.930;2023-05-24T00:45:18;101261.3008;;;;
44734;BME280;30462;52.446;-1.930;2023-05-24T00:46:18;101261.1797;;;;
44734;BME280;30462;52.446;-1.930;2023-05-24T00:47:18;101260.6328;;;;
44734;BME280;30462;52.446;-1.930;2023-05-24T00:48:18;101261.293;;;;
44734;BME280;30462;52.446;-1.930;2023-05-24T00:49:18;101261.2578;;;;
44734;BME280;30462;52.446;-1.930;2023-05-24T00:50:18;101259.3711;;;;
44734;BME280;30462;52.446;-1.930;2023-05-24T00:51:18;101256.0273;;;;
44734;BME280;30462;52.446;-1.930;2023-05-24T00:52:17;101249.918;;;;
44734;BME280;30462;52.446;-1.930;2023-05-24T00:53:18;101247.6836;;;;
44734;BME280;30462;52.446;-1.930;2023-05-24T00:54:18;101247.2891;;;;
44734;BME280;30462;52.446;-1.930;2023-05-24T00:55:18;101244.3516;;;;
44734;BME280;30462;52.446;-1.930;2023-05-24T00:56:18;101245.3047;;;;
44734;BME280;30462;52.446;-1.930;2023-05-24T00:57:18;101242.3906;;;;
44734;BME280;30462;52.446;-1.930;2023-05-24T00:58:17;101246.9648;;;;
44734;BME280;30462;52.446;-1.930;2023-05-24T00:59:18;101248.75;;;;
44734;BME280;30462;52.446;-1.930;2023-05-24T01:00:17;101248.3633;;;;
44734;BME280;30462;52.446;-1.930;2023-05-24T01:01:17;101250.2344;;;;
44734;BME280;30462;52.446;-1.930;2023-05-24T01:02:17;101250.3359;;;;
44734;BME280;30462;52.446;-1.930;2023-05-24T01:03:18;101253.1445;;;;
44734;BME280;30462;52.446;-1.930;2023-05-24T01:04:18;101253.3086;;;;
44734;BME280;30462;52.446;-1.930;2023-05-24T01:05:18;101255.0078;;;;
44734;BME280;30462;52.446;-1.930;2023-05-24T01:06:18;101254.3125;;;;
44734;BME280;30462;52.446;-1.930;2023-05-24T01:07:21;101254.3125;;;;
44734;BME280;30462;52.446;-1.930;2023-05-24T01:08:21;101252.5;;;;
44734;BME280;30462;52.446;-1.930;2023-05-24T01:09:20;101257.0508;;;;
44734;BME280;30462;52.446;-1.930;2023-05-24T01:10:20;101257.9727;;;;
44734;BME280;30462;52.446;-1.930;2023-05-24T01:11:21;101255.4141;;;;
44734;BME280;30462;52.446;-1.930;2023-05-24T01:12:25;101255.832;;;;
44734;BME280;30462;52.446;-1.930;2023-05-24T01:13:20;101254.543;;;;
44734;BME280;30462;52.446;-1.930;2023-05-24T01:14:25;101250.8828;;;;
44734;BME280;30462;52.446;-1.930;2023-05-24T01:15:21;101250.4414;;;;
44734;BME280;30462;52.446;-1.930;2023-05-24T01:16:19;101248.1133;;;;
44734;BME280;30462;52.446;-1.930;2023-05-24T01:17:18;101248.125;;;;
44734;BME280;30462;52.446;-1.930;2023-05-24T01:18:19;101251.4453;;;;
44734;BME280;30462;52.446;-1.930;2023-05-24T01:20:18;101252.7773;;;;
44734;BME280;30462;52.446;-1.930;2023-05-24T01:21:22;101257.3477;;;;
44734;BME280;30462;52.446;-1.930;2023-05-24T01:24:22;101257.4727;;;;
44734;BME280;30462;52.446;-1.930;2023-05-24T01:26:18;101260.0039;;;;
44734;BME280;30462;52.446;-1.930;2023-05-24T01:27:18;101259.2969;;;;
44734;BME280;30462;52.446;-1.930;2023-05-24T01:28:18;101260.4336;;;;
44734;BME280;30462;52.446;-1.930;2023-05-24T01:29:17;101257.0313;;;;
44734;BME280;30462;52.446;-1.930;2023-05-24T01:30:18;101258.0313;;;;
44734;BME280;30462;52.446;-1.930;2023-05-24T01:31:17;101253.2344;;;;
44734;BME280;30462;52.446;-1.930;2023-05-24T01:32:18;101258.6484;;;;
44734;BME280;30462;52.446;-1.930;2023-05-24T01:33:17;101258.0547;;;;
44734;BME280;30462;52.446;-1.930;2023-05-24T01:34:17;101257.7891;;;;
44734;BME280;30462;52.446;-1.930;2023-05-24T01:35:18;101258.6523;;;;
44734;BME280;30462;52.446;-1.930;2023-05-24T01:36:18;101260.043;;;;
44734;BME280;30462;52.446;-1.930;2023-05-24T01:37:18;101260.6289;;;;
44734;BME280;30462;52.446;-1.930;2023-05-24T01:38:18;101261.1328;;;;
44734;BME280;30462;52.446;-1.930;2023-05-24T01:39:18;101260.8398;;;;
44734;BME280;30462;52.446;-1.930;2023-05-24T01:40:18;101259.5859;;;;
44734;BME280;30462;52.446;-1.930;2023-05-24T01:42:23;101262.4102;;;;
44734;BME280;30462;52.446;-1.930;2023-05-24T01:43:22;101259.7891;;;;
44734;BME280;30462;52.446;-1.930;2023-05-24T01:44:20;101263.9531;;;;
44734;BME280;30462;52.446;-1.930;2023-05-24T01:45:19;101262.0195;;;;
44734;BME280;30462;52.446;-1.930;2023-05-24T01:46:21;101263.8945;;;;
44734;BME280;30462;52.446;-1.930;2023-05-24T01:47:22;101259.2578;;;;
44734;BME280;30462;52.446;-1.930;2023-05-24T01:48:18;101257.1953;;;;
44734;BME280;30462;52.446;-1.930;2023-05-24T01:49:24;101255.0781;;;;
44734;BME280;30462;52.446;-1.930;2023-05-24T01:50:22;101254.4453;;;;
44734;BME280;30462;52.446;-1.930;2023-05-24T01:51:18;101254.6641;;;;
44734;BME280;30462;52.446;-1.930;2023-05-24T01:52:18;101251.9258;;;;
44734;BME280;30462;52.446;-1.930;2023-05-24T01:53:19;101255.2695;;;;
44734;BME280;30462;52.446;-1.930;2023-05-24T01:54:19;101255.6953;;;;
44734;BME280;30462;52.446;-1.930;2023-05-24T01:55:18;101253.2539;;;;
44734;BME280;30462;52.446;-1.930;2023-05-24T01:56:18;101254.4063;;;;
44734;BME280;30462;52.446;-1.930;2023-05-24T01:57:18;101255.9648;;;;
44734;BME280;30462;52.446;-1.930;2023-05-24T01:58:17;101255.3281;;;;
44734;BME280;30462;52.446;-1.930;2023-05-24T01:59:18;101252.3164;;;;
44734;BME280;30462;52.446;-1.930;2023-05-24T02:00:18;101253.8867;;;;
44734;BME280;30462;52.446;-1.930;2023-05-24T02:01:18;101254.8398;;;;
44734;BME280;30462;52.446;-1.930;2023-05-24T02:02:18;101256.3047;;;;
44734;BME280;30462;52.446;-1.930;2023-05-24T02:03:18;101251.9805;;;;
44734;BME280;30462;52.446;-1.930;2023-05-24T02:04:18;101255.543;;;;
44734;BME280;30462;52.446;-1.930;2023-05-24T02:05:18;101255.332;;;;
44734;BME280;30462;52.446;-1.930;2023-05-24T02:06:18;101253.7969;;;;
44734;BME280;30462;52.446;-1.930;2023-05-24T02:07:18;101253.0938;;;;
44734;BME280;30462;52.446;-1.930;2023-05-24T02:08:18;101253.0742;;;;
44734;BME280;30462;52.446;-1.930;2023-05-24T02:09:17;101248.543;;;;
44734;BME280;30462;52.446;-1.930;2023-05-24T02:10:18;101251.2031;;;;
44734;BME280;30462;52.446;-1.930;2023-05-24T02:11:18;101249.1289;;;;
44734;BME280;30462;52.446;-1.930;2023-05-24T02:12:18;101249.3906;;;;
44734;BME280;30462;52.446;-1.930;2023-05-24T02:13:18;101248.3008;;;;
44734;BME280;30462;52.446;-1.930;2023-05-24T02:14:18;101248.0742;;;;
44734;BME280;30462;52.446;-1.930;2023-05-24T02:15:18;101255.4219;;;;
44734;BME280;30462;52.446;-1.930;2023-05-24T02:16:17;101256.6328;;;;
44734;BME280;30462;52.446;-1.930;2023-05-24T02:17:18;101256.3711;;;;
44734;BME280;30462;52.446;-1.930;2023-05-24T02:18:18;101258.8203;;;;
44734;BME280;30462;52.446;-1.930;2023-05-24T02:19:18;101262.5195;;;;
44734;BME280;30462;52.446;-1.930;2023-05-24T02:20:18;101258.7852;;;;
44734;BME280;30462;52.446;-1.930;2023-05-24T02:21:18;101261.5898;;;;
44734;BME280;30462;52.446;-1.930;2023-05-24T02:22:17;101267.332;;;;
44734;BME280;30462;52.446;-1.930;2023-05-24T02:23:18;101263.0039;;;;
44734;BME280;30462;52.446;-1.930;2023-05-24T02:24:18;101265.8164;;;;
44734;BME280;30462;52.446;-1.930;2023-05-24T02:25:18;101267.1016;;;;
44734;BME280;30462;52.446;-1.930;2023-05-24T02:26:18;101269.2656;;;;
44734;BME280;30462;52.446;-1.930;2023-05-24T02:27:18;101267.2695;;;;
44734;BME280;30462;52.446;-1.930;2023-05-24T02:28:18;101270.8711;;;;
44734;BME280;30462;52.446;-1.930;2023-05-24T02:29:18;101267.8047;;;;
44734;BME280;30462;52.446;-1.930;2023-05-24T02:30:18;101268.8789;;;;
44734;BME280;30462;52.446;-1.930;2023-05-24T02:31:17;101264.8477;;;;
44734;BME280;30462;52.446;-1.930;2023-05-24T02:32:18;101265.9492;;;;
44734;BME280;30462;52.446;-1.930;2023-05-24T02:33:17;101264.4219;;;;
44734;BME280;30462;52.446;-1.930;2023-05-24T02:34:18;101268.0391;;;;
44734;BME280;30462;52.446;-1.930;2023-05-24T02:35:18;101268.1875;;;;
44734;BME280;30462;52.446;-1.930;2023-05-24T02:36:18;101265.3281;;;;
44734;BME280;30462;52.446;-1.930;2023-05-24T02:37:18;101264.8047;;;;
44734;BME280;30462;52.446;-1.930;2023-05-24T02:38:17;101262.0898;;;;
44734;BME280;30462;52.446;-1.930;2023-05-24T02:39:18;101264.5039;;;;
44734;BME280;30462;52.446;-1.930;2023-05-24T02:40:18;101267.832;;;;
44734;BME280;30462;52.446;-1.930;2023-05-24T02:41:18;101267.7188;;;;
44734;BME280;30462;52.446;-1.930;2023-05-24T02:42:18;101271.7852;;;;
44734;BME280;30462;52.446;-1.930;2023-05-24T02:43:17;101265.293;;;;
44734;BME280;30462;52.446;-1.930;2023-05-24T02:44:18;101268.0469;;;;
44734;BME280;30462;52.446;-1.930;2023-05-24T02:45:18;101270.9805;;;;
44734;BME280;30462;52.446;-1.930;2023-05-24T02:46:18;101266.4922;;;;
44734;BME280;30462;52.446;-1.930;2023-05-24T02:47:18;101264.8828;;;;
44734;BME280;30462;52.446;-1.930;2023-05-24T02:48:18;101268.3203;;;;
44734;BME280;30462;52.446;-1.930;2023-05-24T02:49:17;101267.8789;;;;
44734;BME280;30462;52.446;-1.930;2023-05-24T02:50:18;101272.7109;;;;
44734;BME280;30462;52.446;-1.930;2023-05-24T02:51:18;101271.1836;;;;
44734;BME280;30462;52.446;-1.930;2023-05-24T02:52:18;101268.6797;;;;
44734;BME280;30462;52.446;-1.930;2023-05-24T02:53:18;101268.9648;;;;
44734;BME280;30462;52.446;-1.930;2023-05-24T02:54:18;101271.1016;;;;
44734;BME280;30462;52.446;-1.930;2023-05-24T02:55:18;101269.2148;;;;
44734;BME280;30462;52.446;-1.930;2023-05-24T02:56:18;101272.2695;;;;
44734;BME280;30462;52.446;-1.930;2023-05-24T02:57:18;101269.9727;;;;
44734;BME280;30462;52.446;-1.930;2023-05-24T02:58:18;101271.6016;;;;
44734;BME280;30462;52.446;-1.930;2023-05-24T02:59:18;101272.8984;;;;
44734;BME280;30462;52.446;-1.930;2023-05-24T03:00:18;101272.4414;;;;
44734;BME280;30462;52.446;-1.930;2023-05-24T03:01:18;101273.7461;;;;
44734;BME280;30462;52.446;-1.930;2023-05-24T03:02:18;101271.8242;;;;
44734;BME280;30462;52.446;-1.930;2023-05-24T03:03:18;101274.2422;;;;
44734;BME280;30462;52.446;-1.930;2023-05-24T03:04:18;101268.4688;;;;
44734;BME280;30462;52.446;-1.930;2023-05-24T03:05:18;101269.4766;;;;
44734;BME280;30462;52.446;-1.930;2023-05-24T03:06:18;101269.8398;;;;
44734;BME280;30462;52.446;-1.930;2023-05-24T03:07:18;101269.8555;;;;
44734;BME280;30462;52.446;-1.930;2023-05-24T03:08:18;101271.3555;;;;
44734;BME280;30462;52.446;-1.930;2023-05-24T03:09:18;101270.7461;;;;
44734;BME280;30462;52.446;-1.930;2023-05-24T03:10:18;101274.1484;;;;
44734;BME280;30462;52.446;-1.930;2023-05-24T03:11:18;101273.3906;;;;
44734;BME280;30462;52.446;-1.930;2023-05-24T03:12:18;101271.2891;;;;
44734;BME280;30462;52.446;-1.930;2023-05-24T03:13:17;101271.6641;;;;
44734;BME280;30462;52.446;-1.930;2023-05-24T03:14:17;101267.8086;;;;
44734;BME280;30462;52.446;-1.930;2023-05-24T03:15:18;101270.0078;;;;
44734;BME280;30462;52.446;-1.930;2023-05-24T03:16:18;101268.1328;;;;
44734;BME280;30462;52.446;-1.930;2023-05-24T03:17:18;101268.5859;;;;
44734;BME280;30462;52.446;-1.930;2023-05-24T03:18:17;101272.1016;;;;
44734;BME280;30462;52.446;-1.930;2023-05-24T03:19:18;101275.6797;;;;
44734;BME280;30462;52.446;-1.930;2023-05-24T03:20:18;101275.3984;;;;
44734;BME280;30462;52.446;-1.930;2023-05-24T03:21:18;101274.3594;;;;
44734;BME280;30462;52.446;-1.930;2023-05-24T03:22:17;101273.5391;;;;
44734;BME280;30462;52.446;-1.930;2023-05-24T03:23:18;101272.9219;;;;
44734;BME280;30462;52.446;-1.930;2023-05-24T03:24:18;101269.1641;;;;
44734;BME280;30462;52.446;-1.930;2023-05-24T03:25:18;101271.0391;;;;
44734;BME280;30462;52.446;-1.930;2023-05-24T03:26:17;101272.2578;;;;
44734;BME280;30462;52.446;-1.930;2023-05-24T03:27:18;101270.543;;;;
44734;BME280;30462;52.446;-1.930;2023-05-24T03:28:18;101274.9805;;;;
44734;BME280;30462;52.446;-1.930;2023-05-24T03:29:18;101273.9023;;;;
44734;BME280;30462;52.446;-1.930;2023-05-24T03:30:18;101275.4336;;;;
44734;BME280;30462;52.446;-1.930;2023-05-24T03:31:17;101275.8906;;;;
44734;BME280;30462;52.446;-1.930;2023-05-24T03:32:18;101272.6914;;;;
44734;BME280;30462;52.446;-1.930;2023-05-24T03:33:18;101270.7695;;;;
44734;BME280;30462;52.446;-1.930;2023-05-24T03:34:18;101265.6445;;;;
44734;BME280;30462;52.446;-1.930;2023-05-24T03:35:18;101269.3828;;;;
44734;BME280;30462;52.446;-1.930;2023-05-24T03:36:18;101268.2813;;;;
44734;BME280;30462;52.446;-1.930;2023-05-24T03:37:18;101267.3672;;;;
44734;BME280;30462;52.446;-1.930;2023-05-24T03:38:18;101265.2188;;;;
44734;BME280;30462;52.446;-1.930;2023-05-24T03:39:18;101260.2734;;;;
44734;BME280;30462;52.446;-1.930;2023-05-24T03:40:18;101265;;;;
44734;BME280;30462;52.446;-1.930;2023-05-24T03:41:18;101266.0234;;;;
44734;BME280;30462;52.446;-1.930;2023-05-24T03:42:18;101259.2852;;;;
44734;BME280;30462;52.446;-1.930;2023-05-24T03:43:18;101263.2266;;;;
44734;BME280;30462;52.446;-1.930;2023-05-24T03:44:17;101261.7695;;;;
44734;BME280;30462;52.446;-1.930;2023-05-24T03:45:18;101260.7539;;;;
44734;BME280;30462;52.446;-1.930;2023-05-24T03:46:18;101263.1602;;;;
44734;BME280;30462;52.446;-1.930;2023-05-24T03:47:18;101261.0078;;;;
44734;BME280;30462;52.446;-1.930;2023-05-24T03:48:18;101260.582;;;;
44734;BME280;30462;52.446;-1.930;2023-05-24T03:49:18;101259.4648;;;;
44734;BME280;30462;52.446;-1.930;2023-05-24T03:50:18;101259.3164;;;;
44734;BME280;30462;52.446;-1.930;2023-05-24T03:51:18;101256.3281;;;;
44734;BME280;30462;52.446;-1.930;2023-05-24T03:52:18;101257.0742;;;;
44734;BME280;30462;52.446;-1.930;2023-05-24T03:53:17;101257.0859;;;;
44734;BME280;30462;52.446;-1.930;2023-05-24T03:54:18;101256.6094;;;;
44734;BME280;30462;52.446;-1.930;2023-05-24T03:55:18;101257.3711;;;;
44734;BME280;30462;52.446;-1.930;2023-05-24T03:56:18;101260.7813;;;;
44734;BME280;30462;52.446;-1.930;2023-05-24T03:57:18;101257.1055;;;;
44734;BME280;30462;52.446;-1.930;2023-05-24T03:58:18;101258.2344;;;;
44734;BME280;30462;52.446;-1.930;2023-05-24T03:59:17;101255.6211;;;;
44734;BME280;30462;52.446;-1.930;2023-05-24T04:00:18;101254.2383;;;;
44734;BME280;30462;52.446;-1.930;2023-05-24T04:01:18;101251.4336;;;;
44734;BME280;30462;52.446;-1.930;2023-05-24T04:02:17;101254.8477;;;;
44734;BME280;30462;52.446;-1.930;2023-05-24T04:03:18;101255.8281;;;;
44734;BME280;30462;52.446;-1.930;2023-05-24T04:04:18;101255.543;;;;
44734;BME280;30462;52.446;-1.930;2023-05-24T04:05:18;101253.0313;;;;
44734;BME280;30462;52.446;-1.930;2023-05-24T04:06:18;101251.0625;;;;
44734;BME280;30462;52.446;-1.930;2023-05-24T04:07:18;101254.043;;;;
44734;BME280;30462;52.446;-1.930;2023-05-24T04:08:17;101251.0234;;;;
44734;BME280;30462;52.446;-1.930;2023-05-24T04:09:17;101253.8398;;;;
44734;BME280;30462;52.446;-1.930;2023-05-24T04:10:18;101254.1484;;;;
44734;BME280;30462;52.446;-1.930;2023-05-24T04:11:18;101255.6914;;;;
44734;BME280;30462;52.446;-1.930;2023-05-24T04:12:18;101260.7734;;;;
44734;BME280;30462;52.446;-1.930;2023-05-24T04:13:17;101258.8516;;;;
44734;BME280;30462;52.446;-1.930;2023-05-24T04:14:18;101258.5039;;;;
44734;BME280;30462;52.446;-1.930;2023-05-24T04:15:18;101253.582;;;;
44734;BME280;30462;52.446;-1.930;2023-05-24T04:16:18;101256.8633;;;;
44734;BME280;30462;52.446;-1.930;2023-05-24T04:17:18;101257.5547;;;;
44734;BME280;30462;52.446;-1.930;2023-05-24T04:18:17;101254.6367;;;;
44734;BME280;30462;52.446;-1.930;2023-05-24T04:19:17;101251.9961;;;;
44734;BME280;30462;52.446;-1.930;2023-05-24T04:20:18;101247.9609;;;;
44734;BME280;30462;52.446;-1.930;2023-05-24T04:21:18;101250.0234;;;;
44734;BME280;30462;52.446;-1.930;2023-05-24T04:22:18;101253.7813;;;;
44734;BME280;30462;52.446;-1.930;2023-05-24T04:23:17;101249.8047;;;;
44734;BME280;30462;52.446;-1.930;2023-05-24T04:24:17;101251.4961;;;;
44734;BME280;30462;52.446;-1.930;2023-05-24T04:25:18;101253.6563;;;;
44734;BME280;30462;52.446;-1.930;2023-05-24T04:26:18;101254.9336;;;;
44734;BME280;30462;52.446;-1.930;2023-05-24T04:27:18;101259.6641;;;;
44734;BME280;30462;52.446;-1.930;2023-05-24T04:28:18;101263.5703;;;;
44734;BME280;30462;52.446;-1.930;2023-05-24T04:29:17;101263.3672;;;;
44734;BME280;30462;52.446;-1.930;2023-05-24T04:30:17;101260.2305;;;;
44734;BME280;30462;52.446;-1.930;2023-05-24T04:31:18;101261.0977;;;;
44734;BME280;30462;52.446;-1.930;2023-05-24T04:32:18;101263.1289;;;;
44734;BME280;30462;52.446;-1.930;2023-05-24T04:33:18;101267.3945;;;;
44734;BME280;30462;52.446;-1.930;2023-05-24T04:34:17;101260.4492;;;;
44734;BME280;30462;52.446;-1.930;2023-05-24T04:35:18;101263.5859;;;;
44734;BME280;30462;52.446;-1.930;2023-05-24T04:36:18;101262.1133;;;;
44734;BME280;30462;52.446;-1.930;2023-05-24T04:37:18;101261.1328;;;;
44734;BME280;30462;52.446;-1.930;2023-05-24T04:38:18;101259.9531;;;;
44734;BME280;30462;52.446;-1.930;2023-05-24T04:39:17;101255.2617;;;;
44734;BME280;30462;52.446;-1.930;2023-05-24T04:40:18;101258.6133;;;;
44734;BME280;30462;52.446;-1.930;2023-05-24T04:41:18;101259.3086;;;;
44734;BME280;30462;52.446;-1.930;2023-05-24T04:42:18;101257.918;;;;
44734;BME280;30462;52.446;-1.930;2023-05-24T04:43:18;101258.4453;;;;
44734;BME280;30462;52.446;-1.930;2023-05-24T04:44:17;101255.9844;;;;
44734;BME280;30462;52.446;-1.930;2023-05-24T04:45:17;101258.0273;;;;
44734;BME280;30462;52.446;-1.930;2023-05-24T04:46:18;101254.2383;;;;
44734;BME280;30462;52.446;-1.930;2023-05-24T04:47:18;101253.4219;;;;
44734;BME280;30462;52.446;-1.930;2023-05-24T04:48:18;101256.5898;;;;
44734;BME280;30462;52.446;-1.930;2023-05-24T04:49:18;101256.2656;;;;
44734;BME280;30462;52.446;-1.930;2023-05-24T04:50:17;101256.707;;;;
44734;BME280;30462;52.446;-1.930;2023-05-24T04:51:18;101259.5039;;;;
44734;BME280;30462;52.446;-1.930;2023-05-24T04:52:18;101260.1133;;;;
44734;BME280;30462;52.446;-1.930;2023-05-24T04:53:17;101258.9102;;;;
44734;BME280;30462;52.446;-1.930;2023-05-24T04:54:18;101261.1523;;;;
44734;BME280;30462;52.446;-1.930;2023-05-24T04:55:18;101258.8359;;;;
44734;BME280;30462;52.446;-1.930;2023-05-24T04:56:18;101260.9453;;;;
44734;BME280;30462;52.446;-1.930;2023-05-24T04:57:18;101259.6797;;;;
44734;BME280;30462;52.446;-1.930;2023-05-24T04:58:18;101257.9258;;;;
44734;BME280;30462;52.446;-1.930;2023-05-24T04:59:18;101257.793;;;;
44734;BME280;30462;52.446;-1.930;2023-05-24T05:00:18;101255.6914;;;;
44734;BME280;30462;52.446;-1.930;2023-05-24T05:01:18;101257.2539;;;;
44734;BME280;30462;52.446;-1.930;2023-05-24T05:02:18;101261.7422;;;;
44734;BME280;30462;52.446;-1.930;2023-05-24T05:03:18;101257.9258;;;;
44734;BME280;30462;52.446;-1.930;2023-05-24T05:04:18;101256.2227;;;;
44734;BME280;30462;52.446;-1.930;2023-05-24T05:05:18;101257.4922;;;;
44734;BME280;30462;52.446;-1.930;2023-05-24T05:06:18;101258.8008;;;;
44734;BME280;30462;52.446;-1.930;2023-05-24T05:07:17;101258.8984;;;;
44734;BME280;30462;52.446;-1.930;2023-05-24T05:08:18;101258.0469;;;;
44734;BME280;30462;52.446;-1.930;2023-05-24T05:09:18;101260.0078;;;;
44734;BME280;30462;52.446;-1.930;2023-05-24T05:10:18;101258.9063;;;;
44734;BME280;30462;52.446;-1.930;2023-05-24T05:11:18;101260.168;;;;
44734;BME280;30462;52.446;-1.930;2023-05-24T05:12:17;101264.0898;;;;
44734;BME280;30462;52.446;-1.930;2023-05-24T05:13:17;101266.3047;;;;
44734;BME280;30462;52.446;-1.930;2023-05-24T05:14:18;101264.5703;;;;
44734;BME280;30462;52.446;-1.930;2023-05-24T05:15:19;101263.9453;;;;
44734;BME280;30462;52.446;-1.930;2023-05-24T05:16:18;101263.7813;;;;
44734;BME280;30462;52.446;-1.930;2023-05-24T05:17:18;101262.5352;;;;
44734;BME280;30462;52.446;-1.930;2023-05-24T05:18:18;101263.9023;;;;
44734;BME280;30462;52.446;-1.930;2023-05-24T05:19:18;101269.3281;;;;
44734;BME280;30462;52.446;-1.930;2023-05-24T05:20:17;101268;;;;
44734;BME280;30462;52.446;-1.930;2023-05-24T05:21:17;101272.6211;;;;
44734;BME280;30462;52.446;-1.930;2023-05-24T05:22:18;101270.1445;;;;
44734;BME280;30462;52.446;-1.930;2023-05-24T05:23:18;101269.6016;;;;
44734;BME280;30462;52.446;-1.930;2023-05-24T05:24:18;101272.1641;;;;
44734;BME280;30462;52.446;-1.930;2023-05-24T05:25:18;101270.4336;;;;
44734;BME280;30462;52.446;-1.930;2023-05-24T05:26:18;101271.5195;;;;
44734;BME280;30462;52.446;-1.930;2023-05-24T05:27:17;101271.75;;;;
44734;BME280;30462;52.446;-1.930;2023-05-24T05:28:18;101267.2969;;;;
44734;BME280;30462;52.446;-1.930;2023-05-24T05:29:18;101269.207;;;;
44734;BME280;30462;52.446;-1.930;2023-05-24T05:30:18;101271.9023;;;;
44734;BME280;30462;52.446;-1.930;2023-05-24T05:31:18;101272.2188;;;;
44734;BME280;30462;52.446;-1.930;2023-05-24T05:32:17;101268.9961;;;;
44734;BME280;30462;52.446;-1.930;2023-05-24T05:33:18;101266.4688;;;;
44734;BME280;30462;52.446;-1.930;2023-05-24T05:34:18;101265.043;;;;
44734;BME280;30462;52.446;-1.930;2023-05-24T05:35:18;101265.832;;;;
44734;BME280;30462;52.446;-1.930;2023-05-24T05:36:18;101267.6367;;;;
44734;BME280;30462;52.446;-1.930;2023-05-24T05:37:18;101268.6094;;;;
44734;BME280;30462;52.446;-1.930;2023-05-24T05:38:17;101269.1016;;;;
44734;BME280;30462;52.446;-1.930;2023-05-24T05:39:18;101274.625;;;;
44734;BME280;30462;52.446;-1.930;2023-05-24T05:40:17;101272.5508;;;;
44734;BME280;30462;52.446;-1.930;2023-05-24T05:41:18;101270.4336;;;;
44734;BME280;30462;52.446;-1.930;2023-05-24T05:42:18;101265.0234;;;;
44734;BME280;30462;52.446;-1.930;2023-05-24T05:43:18;101271.4961;;;;
44734;BME280;30462;52.446;-1.930;2023-05-24T05:44:18;101272.6992;;;;
44734;BME280;30462;52.446;-1.930;2023-05-24T05:45:18;101270.2266;;;;
44734;BME280;30462;52.446;-1.930;2023-05-24T05:46:18;101266.9023;;;;
44734;BME280;30462;52.446;-1.930;2023-05-24T05:47:17;101276.3398;;;;
44734;BME280;30462;52.446;-1.930;2023-05-24T05:48:17;101273.3008;;;;
44734;BME280;30462;52.446;-1.930;2023-05-24T05:49:18;101273.7266;;;;
44734;BME280;30462;52.446;-1.930;2023-05-24T05:50:18;101279.5391;;;;
44734;BME280;30462;52.446;-1.930;2023-05-24T05:51:18;101274.5547;;;;